sensor_id;sensor_type;location;lat;lon;timestamp;temperature;humidity
27306;DHT22;14792;50.886;6.468;2022-07-05T00:00:56;16.50;99.90
27306;DHT22;14792;50.886;6.468;2022-07-05T00:03:58;16.40;99.90
27306;DHT22;14792;50.886;6.468;2022-07-05T00:06:59;16.40;99.90
27306;DHT22;14792;50.886;6.468;2022-07-05T00:10:18;16.30;99.90
27306;DHT22;14792;50.886;6.468;2022-07-05T00:13:20;16.20;99.90
27306;DHT22;14792;50.886;6.468;2022-07-05T00:16:21;16.20;99.90
27306;DHT22;14792;50.886;6.468;2022-07-05T00:19:22;16.10;99.90
27306;DHT22;14792;50.886;6.468;2022-07-05T00:22:23;16.00;99.90
27306;DHT22;14792;50.886;6.468;2022-07-05T00:25:25;16.10;99.90
27306;DHT22;14792;50.886;6.468;2022-07-05T00:28:26;16.00;99.90
27306;DHT22;14792;50.886;6.468;2022-07-05T00:31:27;16.00;99.90
27306;DHT22;14792;50.886;6.468;2022-07-05T00:34:28;16.00;99.90
27306;DHT22;14792;50.886;6.468;2022-07-05T00:37:30;16.00;99.90
27306;DHT22;14792;50.886;6.468;2022-07-05T00:40:31;15.90;99.90
27306;DHT22;14792;50.886;6.468;2022-07-05T00:43:32;15.90;99.90
27306;DHT22;14792;50.886;6.468;2022-07-05T00:46:33;15.80;99.90
27306;DHT22;14792;50.886;6.468;2022-07-05T00:49:35;15.90;99.90
27306;DHT22;14792;50.886;6.468;2022-07-05T00:52:36;15.80;99.90
27306;DHT22;14792;50.886;6.468;2022-07-05T00:55:37;15.80;99.90
27306;DHT22;14792;50.886;6.468;2022-07-05T00:58:38;15.90;99.90
27306;DHT22;14792;50.886;6.468;2022-07-05T01:01:39;15.80;99.90
27306;DHT22;14792;50.886;6.468;2022-07-05T01:04:41;15.80;99.90
27306;DHT22;14792;50.886;6.468;2022-07-05T01:07:42;15.80;99.90
27306;DHT22;14792;50.886;6.468;2022-07-05T01:10:43;15.70;99.90
27306;DHT22;14792;50.886;6.468;2022-07-05T01:13:44;15.60;99.90
27306;DHT22;14792;50.886;6.468;2022-07-05T01:16:46;15.50;99.90
27306;DHT22;14792;50.886;6.468;2022-07-05T01:19:47;15.40;99.90
27306;DHT22;14792;50.886;6.468;2022-07-05T01:22:51;15.40;99.90
27306;DHT22;14792;50.886;6.468;2022-07-05T01:25:52;15.40;99.90
27306;DHT22;14792;50.886;6.468;2022-07-05T01:28:53;15.30;99.90
27306;DHT22;14792;50.886;6.468;2022-07-05T01:31:58;15.20;99.90
27306;DHT22;14792;50.886;6.468;2022-07-05T01:34:56;15.20;99.90
27306;DHT22;14792;50.886;6.468;2022-07-05T01:37:57;15.10;99.90
27306;DHT22;14792;50.886;6.468;2022-07-05T01:40:58;15.10;99.90
27306;DHT22;14792;50.886;6.468;2022-07-05T01:44:00;15.20;99.90
27306;DHT22;14792;50.886;6.468;2022-07-05T01:47:05;15.30;99.90
27306;DHT22;14792;50.886;6.468;2022-07-05T01:50:02;15.20;99.90
27306;DHT22;14792;50.886;6.468;2022-07-05T01:53:03;15.20;99.90
27306;DHT22;14792;50.886;6.468;2022-07-05T01:56:04;15.20;99.90
27306;DHT22;14792;50.886;6.468;2022-07-05T01:59:06;15.20;99.90
27306;DHT22;14792;50.886;6.468;2022-07-05T02:02:07;15.20;99.90
27306;DHT22;14792;50.886;6.468;2022-07-05T02:05:08;15.20;99.90
27306;DHT22;14792;50.886;6.468;2022-07-05T02:08:09;15.20;99.90
27306;DHT22;14792;50.886;6.468;2022-07-05T02:11:10;15.10;99.90
27306;DHT22;14792;50.886;6.468;2022-07-05T02:14:12;15.10;99.90
27306;DHT22;14792;50.886;6.468;2022-07-05T02:17:13;15.10;99.90
27306;DHT22;14792;50.886;6.468;2022-07-05T02:20:14;14.90;99.90
27306;DHT22;14792;50.886;6.468;2022-07-05T02:23:15;14.90;99.90
27306;DHT22;14792;50.886;6.468;2022-07-05T02:26:17;15.10;99.90
27306;DHT22;14792;50.886;6.468;2022-07-05T02:29:18;15.10;99.90
27306;DHT22;14792;50.886;6.468;2022-07-05T02:32:19;15.10;99.90
27306;DHT22;14792;50.886;6.468;2022-07-05T02:35:20;15.10;99.90
27306;DHT22;14792;50.886;6.468;2022-07-05T02:38:21;15.20;99.90
27306;DHT22;14792;50.886;6.468;2022-07-05T02:41:23;15.20;99.90
27306;DHT22;14792;50.886;6.468;2022-07-05T02:44:24;15.10;99.90
27306;DHT22;14792;50.886;6.468;2022-07-05T02:47:25;15.20;99.90
27306;DHT22;14792;50.886;6.468;2022-07-05T02:50:26;15.20;99.90
27306;DHT22;14792;50.886;6.468;2022-07-05T02:53:28;15.20;99.90
27306;DHT22;14792;50.886;6.468;2022-07-05T02:56:29;15.20;99.90
27306;DHT22;14792;50.886;6.468;2022-07-05T02:59:30;15.20;99.90
27306;DHT22;14792;50.886;6.468;2022-07-05T03:02:31;15.20;99.90
27306;DHT22;14792;50.886;6.468;2022-07-05T03:05:32;15.20;99.90
27306;DHT22;14792;50.886;6.468;2022-07-05T03:08:34;15.20;99.90
27306;DHT22;14792;50.886;6.468;2022-07-05T03:11:38;15.30;99.90
27306;DHT22;14792;50.886;6.468;2022-07-05T03:14:36;15.30;99.90
27306;DHT22;14792;50.886;6.468;2022-07-05T03:17:37;15.30;99.90
27306;DHT22;14792;50.886;6.468;2022-07-05T03:20:39;15.40;99.90
27306;DHT22;14792;50.886;6.468;2022-07-05T03:23:40;15.40;99.90
27306;DHT22;14792;50.886;6.468;2022-07-05T03:26:41;15.40;99.90
27306;DHT22;14792;50.886;6.468;2022-07-05T03:29:42;15.40;99.90
27306;DHT22;14792;50.886;6.468;2022-07-05T03:35:37;15.40;99.90
27306;DHT22;14792;50.886;6.468;2022-07-05T03:38:38;15.30;99.90
27306;DHT22;14792;50.886;6.468;2022-07-05T03:41:39;15.30;99.90
27306;DHT22;14792;50.886;6.468;2022-07-05T03:44:41;15.20;99.90
27306;DHT22;14792;50.886;6.468;2022-07-05T03:47:42;15.20;99.90
27306;DHT22;14792;50.886;6.468;2022-07-05T03:50:43;15.20;99.90
27306;DHT22;14792;50.886;6.468;2022-07-05T03:53:44;15.20;99.90
27306;DHT22;14792;50.886;6.468;2022-07-05T03:56:46;15.30;99.90
27306;DHT22;14792;50.886;6.468;2022-07-05T03:59:47;15.30;99.90
27306;DHT22;14792;50.886;6.468;2022-07-05T04:02:48;15.30;99.90
27306;DHT22;14792;50.886;6.468;2022-07-05T04:05:49;15.30;99.90
27306;DHT22;14792;50.886;6.468;2022-07-05T04:08:50;15.30;99.90
27306;DHT22;14792;50.886;6.468;2022-07-05T04:11:52;15.30;99.90
27306;DHT22;14792;50.886;6.468;2022-07-05T04:14:53;15.30;99.90
27306;DHT22;14792;50.886;6.468;2022-07-05T04:17:55;15.30;99.90
27306;DHT22;14792;50.886;6.468;2022-07-05T04:20:55;15.30;99.90
27306;DHT22;14792;50.886;6.468;2022-07-05T04:23:57;15.30;99.90
27306;DHT22;14792;50.886;6.468;2022-07-05T04:26:58;15.30;99.90
27306;DHT22;14792;50.886;6.468;2022-07-05T04:29:59;15.40;99.90
27306;DHT22;14792;50.886;6.468;2022-07-05T04:33:01;15.40;99.90
27306;DHT22;14792;50.886;6.468;2022-07-05T04:36:02;15.40;99.90
27306;DHT22;14792;50.886;6.468;2022-07-05T04:39:04;15.40;99.90
27306;DHT22;14792;50.886;6.468;2022-07-05T04:42:05;15.50;99.90
27306;DHT22;14792;50.886;6.468;2022-07-05T04:45:06;15.60;99.90
27306;DHT22;14792;50.886;6.468;2022-07-05T04:48:07;15.60;99.90
27306;DHT22;14792;50.886;6.468;2022-07-05T04:51:08;15.60;99.90
27306;DHT22;14792;50.886;6.468;2022-07-05T04:54:10;15.60;99.90
27306;DHT22;14792;50.886;6.468;2022-07-05T04:57:11;15.70;99.90
27306;DHT22;14792;50.886;6.468;2022-07-05T05:00:13;15.60;99.90
27306;DHT22;14792;50.886;6.468;2022-07-05T05:03:13;15.60;99.90
27306;DHT22;14792;50.886;6.468;2022-07-05T05:06:15;15.70;99.90
27306;DHT22;14792;50.886;6.468;2022-07-05T05:09:16;15.70;99.90
27306;DHT22;14792;50.886;6.468;2022-07-05T05:12:17;15.80;99.90
27306;DHT22;14792;50.886;6.468;2022-07-05T05:15:18;15.80;99.90
27306;DHT22;14792;50.886;6.468;2022-07-05T05:18:20;15.80;99.90
27306;DHT22;14792;50.886;6.468;2022-07-05T05:21:21;15.90;99.90
27306;DHT22;14792;50.886;6.468;2022-07-05T05:24:22;15.90;99.90
27306;DHT22;14792;50.886;6.468;2022-07-05T05:27:23;16.00;99.90
27306;DHT22;14792;50.886;6.468;2022-07-05T05:30:24;16.20;99.90
27306;DHT22;14792;50.886;6.468;2022-07-05T05:33:26;16.30;99.90
27306;DHT22;14792;50.886;6.468;2022-07-05T05:36:27;16.40;99.90
27306;DHT22;14792;50.886;6.468;2022-07-05T05:39:28;16.30;99.90
27306;DHT22;14792;50.886;6.468;2022-07-05T05:42:29;16.50;99.90
27306;DHT22;14792;50.886;6.468;2022-07-05T05:45:31;16.50;99.90
27306;DHT22;14792;50.886;6.468;2022-07-05T05:48:32;16.60;99.90
27306;DHT22;14792;50.886;6.468;2022-07-05T05:51:34;16.50;99.90
27306;DHT22;14792;50.886;6.468;2022-07-05T05:54:35;16.50;99.90
27306;DHT22;14792;50.886;6.468;2022-07-05T05:57:36;16.50;99.90
27306;DHT22;14792;50.886;6.468;2022-07-05T06:00:37;16.50;99.90
27306;DHT22;14792;50.886;6.468;2022-07-05T06:03:38;16.70;99.90
27306;DHT22;14792;50.886;6.468;2022-07-05T06:06:40;16.80;99.90
27306;DHT22;14792;50.886;6.468;2022-07-05T06:09:41;16.90;99.90
27306;DHT22;14792;50.886;6.468;2022-07-05T06:12:42;17.00;99.90
27306;DHT22;14792;50.886;6.468;2022-07-05T06:15:43;17.00;99.90
27306;DHT22;14792;50.886;6.468;2022-07-05T06:18:45;17.10;99.90
27306;DHT22;14792;50.886;6.468;2022-07-05T06:21:46;17.30;99.90
27306;DHT22;14792;50.886;6.468;2022-07-05T06:24:47;17.40;99.90
27306;DHT22;14792;50.886;6.468;2022-07-05T06:27:49;17.50;99.90
27306;DHT22;14792;50.886;6.468;2022-07-05T06:30:49;17.80;99.90
27306;DHT22;14792;50.886;6.468;2022-07-05T06:33:51;18.00;99.90
27306;DHT22;14792;50.886;6.468;2022-07-05T06:36:52;18.10;99.90
27306;DHT22;14792;50.886;6.468;2022-07-05T06:39:53;18.30;99.90
27306;DHT22;14792;50.886;6.468;2022-07-05T06:42:55;18.60;99.90
27306;DHT22;14792;50.886;6.468;2022-07-05T06:45:56;18.80;99.90
27306;DHT22;14792;50.886;6.468;2022-07-05T06:48:57;19.00;99.90
27306;DHT22;14792;50.886;6.468;2022-07-05T06:51:58;19.20;99.90
27306;DHT22;14792;50.886;6.468;2022-07-05T06:54:59;19.50;99.90
27306;DHT22;14792;50.886;6.468;2022-07-05T07:01:02;20.10;99.90
27306;DHT22;14792;50.886;6.468;2022-07-05T07:04:04;20.30;99.90
27306;DHT22;14792;50.886;6.468;2022-07-05T07:07:05;20.20;99.90
27306;DHT22;14792;50.886;6.468;2022-07-05T07:10:09;20.40;99.90
27306;DHT22;14792;50.886;6.468;2022-07-05T07:13:10;20.80;99.90
27306;DHT22;14792;50.886;6.468;2022-07-05T07:16:11;21.30;99.90
27306;DHT22;14792;50.886;6.468;2022-07-05T07:19:12;21.60;99.90
27306;DHT22;14792;50.886;6.468;2022-07-05T07:22:14;21.70;99.90
27306;DHT22;14792;50.886;6.468;2022-07-05T07:25:15;21.80;99.90
27306;DHT22;14792;50.886;6.468;2022-07-05T07:28:16;22.10;99.90
27306;DHT22;14792;50.886;6.468;2022-07-05T07:31:17;22.20;99.90
27306;DHT22;14792;50.886;6.468;2022-07-05T07:34:18;22.40;99.90
27306;DHT22;14792;50.886;6.468;2022-07-05T07:37:20;22.50;99.90
27306;DHT22;14792;50.886;6.468;2022-07-05T07:40:21;22.60;99.90
27306;DHT22;14792;50.886;6.468;2022-07-05T07:43:22;22.80;99.90
27306;DHT22;14792;50.886;6.468;2022-07-05T07:46:23;23.00;99.90
27306;DHT22;14792;50.886;6.468;2022-07-05T07:49:25;23.30;99.90
27306;DHT22;14792;50.886;6.468;2022-07-05T07:52:26;23.40;99.90
27306;DHT22;14792;50.886;6.468;2022-07-05T07:55:27;23.30;99.90
27306;DHT22;14792;50.886;6.468;2022-07-05T07:58:28;23.50;99.90
27306;DHT22;14792;50.886;6.468;2022-07-05T08:01:30;23.50;99.90
27306;DHT22;14792;50.886;6.468;2022-07-05T08:04:32;23.80;99.90
27306;DHT22;14792;50.886;6.468;2022-07-05T08:07:34;24.00;99.90
27306;DHT22;14792;50.886;6.468;2022-07-05T08:10:35;24.10;99.90
27306;DHT22;14792;50.886;6.468;2022-07-05T08:13:36;24.30;99.90
27306;DHT22;14792;50.886;6.468;2022-07-05T08:16:37;24.30;99.90
27306;DHT22;14792;50.886;6.468;2022-07-05T08:19:39;24.60;99.90
27306;DHT22;14792;50.886;6.468;2022-07-05T08:22:58;24.40;99.90
27306;DHT22;14792;50.886;6.468;2022-07-05T08:25:59;24.40;99.90
27306;DHT22;14792;50.886;6.468;2022-07-05T08:29:01;24.60;99.90
27306;DHT22;14792;50.886;6.468;2022-07-05T08:32:02;24.80;99.90
27306;DHT22;14792;50.886;6.468;2022-07-05T08:35:03;24.40;99.90
27306;DHT22;14792;50.886;6.468;2022-07-05T08:38:05;24.40;99.90
27306;DHT22;14792;50.886;6.468;2022-07-05T08:41:07;24.70;99.90
27306;DHT22;14792;50.886;6.468;2022-07-05T08:44:11;24.90;99.90
27306;DHT22;14792;50.886;6.468;2022-07-05T08:47:11;25.40;99.90
27306;DHT22;14792;50.886;6.468;2022-07-05T08:50:12;25.40;99.90
27306;DHT22;14792;50.886;6.468;2022-07-05T08:53:18;25.20;99.90
27306;DHT22;14792;50.886;6.468;2022-07-05T08:56:15;24.50;99.90
27306;DHT22;14792;50.886;6.468;2022-07-05T08:59:16;24.90;99.90
27306;DHT22;14792;50.886;6.468;2022-07-05T09:02:17;25.50;99.90
27306;DHT22;14792;50.886;6.468;2022-07-05T09:05:19;25.10;99.90
27306;DHT22;14792;50.886;6.468;2022-07-05T09:08:20;24.60;99.90
27306;DHT22;14792;50.886;6.468;2022-07-05T09:11:24;24.10;99.90
27306;DHT22;14792;50.886;6.468;2022-07-05T09:14:25;24.30;99.90
27306;DHT22;14792;50.886;6.468;2022-07-05T09:17:26;23.90;99.90
27306;DHT22;14792;50.886;6.468;2022-07-05T09:20:27;23.90;99.90
27306;DHT22;14792;50.886;6.468;2022-07-05T09:23:28;23.90;99.90
27306;DHT22;14792;50.886;6.468;2022-07-05T09:29:33;23.80;99.90
27306;DHT22;14792;50.886;6.468;2022-07-05T09:32:34;23.50;99.90
27306;DHT22;14792;50.886;6.468;2022-07-05T09:35:37;24.20;99.90
27306;DHT22;14792;50.886;6.468;2022-07-05T09:38:37;24.30;99.90
27306;DHT22;14792;50.886;6.468;2022-07-05T09:41:38;24.10;99.90
27306;DHT22;14792;50.886;6.468;2022-07-05T09:44:43;24.00;99.90
27306;DHT22;14792;50.886;6.468;2022-07-05T09:47:43;24.10;99.90
27306;DHT22;14792;50.886;6.468;2022-07-05T09:50:45;24.30;99.90
27306;DHT22;14792;50.886;6.468;2022-07-05T09:53:47;24.30;99.90
27306;DHT22;14792;50.886;6.468;2022-07-05T09:56:47;24.30;99.90
27306;DHT22;14792;50.886;6.468;2022-07-05T09:59:57;24.30;99.90
27306;DHT22;14792;50.886;6.468;2022-07-05T10:05:51;24.30;99.90
27306;DHT22;14792;50.886;6.468;2022-07-05T10:08:52;24.20;99.00
27306;DHT22;14792;50.886;6.468;2022-07-05T10:11:53;24.10;99.90
27306;DHT22;14792;50.886;6.468;2022-07-05T10:14:54;24.60;98.70
27306;DHT22;14792;50.886;6.468;2022-07-05T10:17:59;24.60;99.60
27306;DHT22;14792;50.886;6.468;2022-07-05T10:21:03;24.10;99.90
27306;DHT22;14792;50.886;6.468;2022-07-05T10:24:04;23.80;99.90
27306;DHT22;14792;50.886;6.468;2022-07-05T10:27:05;23.80;99.90
27306;DHT22;14792;50.886;6.468;2022-07-05T10:30:06;23.20;99.90
27306;DHT22;14792;50.886;6.468;2022-07-05T10:33:07;23.20;99.90
27306;DHT22;14792;50.886;6.468;2022-07-05T10:36:13;23.70;99.90
27306;DHT22;14792;50.886;6.468;2022-07-05T10:39:13;23.70;99.90
27306;DHT22;14792;50.886;6.468;2022-07-05T10:42:14;23.30;99.90
27306;DHT22;14792;50.886;6.468;2022-07-05T10:45:23;23.30;99.90
27306;DHT22;14792;50.886;6.468;2022-07-05T10:48:23;23.40;99.90
27306;DHT22;14792;50.886;6.468;2022-07-05T10:51:27;23.80;99.90
27306;DHT22;14792;50.886;6.468;2022-07-05T10:54:28;23.90;99.90
27306;DHT22;14792;50.886;6.468;2022-07-05T10:57:29;23.60;99.90
27306;DHT22;14792;50.886;6.468;2022-07-05T11:00:30;23.40;99.90
27306;DHT22;14792;50.886;6.468;2022-07-05T11:03:39;23.20;99.90
27306;DHT22;14792;50.886;6.468;2022-07-05T11:09:53;23.90;99.90
27306;DHT22;14792;50.886;6.468;2022-07-05T11:12:41;23.90;99.90
27306;DHT22;14792;50.886;6.468;2022-07-05T11:19:09;23.60;99.80
27306;DHT22;14792;50.886;6.468;2022-07-05T11:22:09;23.40;99.90
27306;DHT22;14792;50.886;6.468;2022-07-05T11:25:11;23.50;99.90
27306;DHT22;14792;50.886;6.468;2022-07-05T11:28:13;23.90;99.90
27306;DHT22;14792;50.886;6.468;2022-07-05T11:31:39;24.10;99.30
27306;DHT22;14792;50.886;6.468;2022-07-05T11:34:14;24.20;99.70
27306;DHT22;14792;50.886;6.468;2022-07-05T11:43:27;23.50;98.40
27306;DHT22;14792;50.886;6.468;2022-07-05T11:46:28;24.30;99.90
27306;DHT22;14792;50.886;6.468;2022-07-05T11:49:29;24.50;99.90
27306;DHT22;14792;50.886;6.468;2022-07-05T11:52:32;24.60;99.90
27306;DHT22;14792;50.886;6.468;2022-07-05T11:55:33;24.40;99.70
27306;DHT22;14792;50.886;6.468;2022-07-05T11:58:34;24.10;97.40
27306;DHT22;14792;50.886;6.468;2022-07-05T12:01:45;24.10;98.60
27306;DHT22;14792;50.886;6.468;2022-07-05T12:04:37;24.60;99.00
27306;DHT22;14792;50.886;6.468;2022-07-05T12:07:38;24.30;98.40
27306;DHT22;14792;50.886;6.468;2022-07-05T12:10:45;24.80;99.50
27306;DHT22;14792;50.886;6.468;2022-07-05T12:13:58;24.50;97.80
27306;DHT22;14792;50.886;6.468;2022-07-05T12:17:12;24.10;98.50
27306;DHT22;14792;50.886;6.468;2022-07-05T12:20:14;24.00;99.30
27306;DHT22;14792;50.886;6.468;2022-07-05T12:23:14;24.00;99.30
27306;DHT22;14792;50.886;6.468;2022-07-05T12:26:15;23.90;98.70
27306;DHT22;14792;50.886;6.468;2022-07-05T12:29:16;24.30;99.90
27306;DHT22;14792;50.886;6.468;2022-07-05T12:32:18;24.40;97.90
27306;DHT22;14792;50.886;6.468;2022-07-05T12:38:38;24.30;98.20
27306;DHT22;14792;50.886;6.468;2022-07-05T12:41:42;24.60;98.10
27306;DHT22;14792;50.886;6.468;2022-07-05T12:44:43;25.10;99.90
27306;DHT22;14792;50.886;6.468;2022-07-05T12:47:54;25.40;97.90
27306;DHT22;14792;50.886;6.468;2022-07-05T12:50:55;25.80;99.40
27306;DHT22;14792;50.886;6.468;2022-07-05T12:53:56;25.80;95.70
27306;DHT22;14792;50.886;6.468;2022-07-05T12:57:15;25.80;96.80
27306;DHT22;14792;50.886;6.468;2022-07-05T13:00:35;25.70;96.10
27306;DHT22;14792;50.886;6.468;2022-07-05T13:03:55;25.80;97.20
27306;DHT22;14792;50.886;6.468;2022-07-05T13:06:59;25.30;97.00
27306;DHT22;14792;50.886;6.468;2022-07-05T13:10:15;25.90;97.80
27306;DHT22;14792;50.886;6.468;2022-07-05T13:13:16;26.00;97.00
27306;DHT22;14792;50.886;6.468;2022-07-05T13:16:17;26.10;95.90
27306;DHT22;14792;50.886;6.468;2022-07-05T13:19:18;25.90;96.40
27306;DHT22;14792;50.886;6.468;2022-07-05T13:22:19;26.00;98.20
27306;DHT22;14792;50.886;6.468;2022-07-05T13:25:21;26.00;98.10
27306;DHT22;14792;50.886;6.468;2022-07-05T13:28:22;26.20;98.40
27306;DHT22;14792;50.886;6.468;2022-07-05T13:31:23;26.60;96.80
27306;DHT22;14792;50.886;6.468;2022-07-05T13:34:24;26.30;94.80
27306;DHT22;14792;50.886;6.468;2022-07-05T13:37:26;25.80;93.20
27306;DHT22;14792;50.886;6.468;2022-07-05T13:40:27;26.60;95.50
27306;DHT22;14792;50.886;6.468;2022-07-05T13:43:28;27.10;95.30
27306;DHT22;14792;50.886;6.468;2022-07-05T13:46:29;26.90;93.80
27306;DHT22;14792;50.886;6.468;2022-07-05T13:49:31;26.30;93.50
27306;DHT22;14792;50.886;6.468;2022-07-05T13:52:32;26.00;93.20
27306;DHT22;14792;50.886;6.468;2022-07-05T13:55:33;25.60;94.40
27306;DHT22;14792;50.886;6.468;2022-07-05T13:58:34;25.40;94.90
27306;DHT22;14792;50.886;6.468;2022-07-05T14:01:35;25.30;94.50
27306;DHT22;14792;50.886;6.468;2022-07-05T14:04:37;25.10;95.90
27306;DHT22;14792;50.886;6.468;2022-07-05T14:07:38;25.40;94.70
27306;DHT22;14792;50.886;6.468;2022-07-05T14:10:39;25.50;96.50
27306;DHT22;14792;50.886;6.468;2022-07-05T14:13:40;26.00;97.20
27306;DHT22;14792;50.886;6.468;2022-07-05T14:16:42;25.60;95.50
27306;DHT22;14792;50.886;6.468;2022-07-05T14:19:43;25.80;95.40
27306;DHT22;14792;50.886;6.468;2022-07-05T14:22:44;26.00;95.50
27306;DHT22;14792;50.886;6.468;2022-07-05T14:25:45;25.70;94.30
27306;DHT22;14792;50.886;6.468;2022-07-05T14:28:46;25.30;93.60
27306;DHT22;14792;50.886;6.468;2022-07-05T14:31:48;25.70;97.40
27306;DHT22;14792;50.886;6.468;2022-07-05T14:34:49;25.90;94.00
27306;DHT22;14792;50.886;6.468;2022-07-05T14:37:50;25.60;94.00
27306;DHT22;14792;50.886;6.468;2022-07-05T14:40:51;25.60;94.00
27306;DHT22;14792;50.886;6.468;2022-07-05T14:43:53;25.50;93.10
27306;DHT22;14792;50.886;6.468;2022-07-05T14:46:54;25.50;93.40
27306;DHT22;14792;50.886;6.468;2022-07-05T14:49:55;25.60;92.70
27306;DHT22;14792;50.886;6.468;2022-07-05T14:52:56;25.90;92.60
27306;DHT22;14792;50.886;6.468;2022-07-05T14:55:57;26.10;95.00
27306;DHT22;14792;50.886;6.468;2022-07-05T14:58:59;26.10;92.80
27306;DHT22;14792;50.886;6.468;2022-07-05T15:02:00;25.80;93.80
27306;DHT22;14792;50.886;6.468;2022-07-05T15:05:01;26.00;94.60
27306;DHT22;14792;50.886;6.468;2022-07-05T15:08:05;25.80;92.60
27306;DHT22;14792;50.886;6.468;2022-07-05T15:11:06;25.40;94.00
27306;DHT22;14792;50.886;6.468;2022-07-05T15:14:07;25.20;93.60
27306;DHT22;14792;50.886;6.468;2022-07-05T15:17:08;25.20;93.50
27306;DHT22;14792;50.886;6.468;2022-07-05T15:20:10;25.30;93.20
27306;DHT22;14792;50.886;6.468;2022-07-05T15:23:11;25.10;93.90
27306;DHT22;14792;50.886;6.468;2022-07-05T15:26:12;25.00;93.70
27306;DHT22;14792;50.886;6.468;2022-07-05T15:29:13;25.50;95.20
27306;DHT22;14792;50.886;6.468;2022-07-05T15:32:14;25.90;95.60
27306;DHT22;14792;50.886;6.468;2022-07-05T15:35:16;25.60;93.10
27306;DHT22;14792;50.886;6.468;2022-07-05T15:38:17;25.40;96.70
27306;DHT22;14792;50.886;6.468;2022-07-05T15:41:18;25.80;95.20
27306;DHT22;14792;50.886;6.468;2022-07-05T15:44:19;25.70;95.80
27306;DHT22;14792;50.886;6.468;2022-07-05T15:47:21;25.60;96.00
27306;DHT22;14792;50.886;6.468;2022-07-05T15:50:22;25.40;94.70
27306;DHT22;14792;50.886;6.468;2022-07-05T15:53:23;25.00;94.70
27306;DHT22;14792;50.886;6.468;2022-07-05T15:56:24;24.70;95.80
27306;DHT22;14792;50.886;6.468;2022-07-05T15:59:26;24.30;96.70
27306;DHT22;14792;50.886;6.468;2022-07-05T16:02:27;24.00;96.70
27306;DHT22;14792;50.886;6.468;2022-07-05T16:05:28;23.80;97.20
27306;DHT22;14792;50.886;6.468;2022-07-05T16:08:29;23.60;97.60
27306;DHT22;14792;50.886;6.468;2022-07-05T16:11:30;23.40;97.80
27306;DHT22;14792;50.886;6.468;2022-07-05T16:14:32;23.40;98.10
27306;DHT22;14792;50.886;6.468;2022-07-05T16:17:34;23.20;97.70
27306;DHT22;14792;50.886;6.468;2022-07-05T16:20:35;23.00;98.50
27306;DHT22;14792;50.886;6.468;2022-07-05T16:23:36;22.90;99.30
27306;DHT22;14792;50.886;6.468;2022-07-05T16:26:37;22.80;99.30
27306;DHT22;14792;50.886;6.468;2022-07-05T16:29:39;22.60;99.90
27306;DHT22;14792;50.886;6.468;2022-07-05T16:32:40;22.50;99.90
27306;DHT22;14792;50.886;6.468;2022-07-05T16:35:41;22.20;99.90
27306;DHT22;14792;50.886;6.468;2022-07-05T16:38:43;22.10;99.90
27306;DHT22;14792;50.886;6.468;2022-07-05T16:41:43;22.10;99.90
27306;DHT22;14792;50.886;6.468;2022-07-05T16:44:45;22.10;99.90
27306;DHT22;14792;50.886;6.468;2022-07-05T16:47:46;22.00;99.90
27306;DHT22;14792;50.886;6.468;2022-07-05T16:50:47;22.10;99.90
27306;DHT22;14792;50.886;6.468;2022-07-05T16:53:49;22.00;99.90
27306;DHT22;14792;50.886;6.468;2022-07-05T16:56:50;22.10;99.90
27306;DHT22;14792;50.886;6.468;2022-07-05T16:59:51;22.10;99.90
27306;DHT22;14792;50.886;6.468;2022-07-05T17:02:52;22.10;99.90
27306;DHT22;14792;50.886;6.468;2022-07-05T17:05:53;22.20;99.90
27306;DHT22;14792;50.886;6.468;2022-07-05T17:08:55;22.20;99.90
27306;DHT22;14792;50.886;6.468;2022-07-05T17:11:56;22.40;99.90
27306;DHT22;14792;50.886;6.468;2022-07-05T17:14:57;22.50;99.90
27306;DHT22;14792;50.886;6.468;2022-07-05T17:17:58;22.40;99.90
27306;DHT22;14792;50.886;6.468;2022-07-05T17:20:59;22.20;99.90
27306;DHT22;14792;50.886;6.468;2022-07-05T17:24:01;21.80;99.90
27306;DHT22;14792;50.886;6.468;2022-07-05T17:27:02;21.80;99.90
27306;DHT22;14792;50.886;6.468;2022-07-05T17:30:03;21.70;99.90
27306;DHT22;14792;50.886;6.468;2022-07-05T17:33:04;21.70;99.90
27306;DHT22;14792;50.886;6.468;2022-07-05T17:36:06;21.50;99.90
27306;DHT22;14792;50.886;6.468;2022-07-05T17:39:07;21.50;99.90
27306;DHT22;14792;50.886;6.468;2022-07-05T17:42:08;21.40;99.90
27306;DHT22;14792;50.886;6.468;2022-07-05T17:45:09;21.40;99.90
27306;DHT22;14792;50.886;6.468;2022-07-05T17:48:10;21.30;99.90
27306;DHT22;14792;50.886;6.468;2022-07-05T17:51:12;21.20;99.90
27306;DHT22;14792;50.886;6.468;2022-07-05T17:54:14;21.20;99.90
27306;DHT22;14792;50.886;6.468;2022-07-05T17:57:14;21.20;99.90
27306;DHT22;14792;50.886;6.468;2022-07-05T18:00:15;21.10;99.90
27306;DHT22;14792;50.886;6.468;2022-07-05T18:03:17;21.00;99.90
27306;DHT22;14792;50.886;6.468;2022-07-05T18:06:18;20.90;99.90
27306;DHT22;14792;50.886;6.468;2022-07-05T18:09:19;20.80;99.90
27306;DHT22;14792;50.886;6.468;2022-07-05T18:12:20;20.80;99.90
27306;DHT22;14792;50.886;6.468;2022-07-05T18:15:22;20.80;99.90
27306;DHT22;14792;50.886;6.468;2022-07-05T18:18:23;20.70;99.90
27306;DHT22;14792;50.886;6.468;2022-07-05T18:21:24;20.70;99.90
27306;DHT22;14792;50.886;6.468;2022-07-05T18:24:25;20.60;99.90
27306;DHT22;14792;50.886;6.468;2022-07-05T18:27:26;20.50;99.90
27306;DHT22;14792;50.886;6.468;2022-07-05T18:30:28;20.50;99.90
27306;DHT22;14792;50.886;6.468;2022-07-05T18:33:29;20.40;99.90
27306;DHT22;14792;50.886;6.468;2022-07-05T18:36:30;20.30;99.90
27306;DHT22;14792;50.886;6.468;2022-07-05T18:39:31;20.30;99.90
27306;DHT22;14792;50.886;6.468;2022-07-05T18:42:33;20.10;99.90
27306;DHT22;14792;50.886;6.468;2022-07-05T18:45:35;20.10;99.90
27306;DHT22;14792;50.886;6.468;2022-07-05T18:48:36;20.10;99.90
27306;DHT22;14792;50.886;6.468;2022-07-05T18:51:37;20.10;99.90
27306;DHT22;14792;50.886;6.468;2022-07-05T18:54:39;20.00;99.90
27306;DHT22;14792;50.886;6.468;2022-07-05T18:57:40;20.00;99.90
27306;DHT22;14792;50.886;6.468;2022-07-05T19:00:41;19.90;99.90
27306;DHT22;14792;50.886;6.468;2022-07-05T19:03:42;19.80;99.90
27306;DHT22;14792;50.886;6.468;2022-07-05T19:06:44;19.70;99.90
27306;DHT22;14792;50.886;6.468;2022-07-05T19:10:03;19.60;99.90
27306;DHT22;14792;50.886;6.468;2022-07-05T19:13:22;19.50;99.90
27306;DHT22;14792;50.886;6.468;2022-07-05T19:16:41;19.50;99.90
27306;DHT22;14792;50.886;6.468;2022-07-05T19:19:43;19.40;99.90
27306;DHT22;14792;50.886;6.468;2022-07-05T19:22:44;19.30;99.90
27306;DHT22;14792;50.886;6.468;2022-07-05T19:25:45;19.20;99.90
27306;DHT22;14792;50.886;6.468;2022-07-05T19:28:46;19.20;99.90
27306;DHT22;14792;50.886;6.468;2022-07-05T19:31:48;19.10;99.90
27306;DHT22;14792;50.886;6.468;2022-07-05T19:34:49;19.00;99.90